sensor_id;sensor_type;location;lat;lon;timestamp;P1;durP1;ratioP1;P2;durP2;ratioP2
9080;SDS011;13509;50.760;6.080;2024-01-10T00:00:36;14.03;;;6.03;;
9080;SDS011;13509;50.760;6.080;2024-01-10T00:03:04;13.57;;;6.73;;
9080;SDS011;13509;50.760;6.080;2024-01-10T00:05:33;13.43;;;5.80;;
9080;SDS011;13509;50.760;6.080;2024-01-10T00:08:03;11.20;;;6.10;;
9080;SDS011;13509;50.760;6.080;2024-01-10T00:10:32;11.30;;;5.07;;
9080;SDS011;13509;50.760;6.080;2024-01-10T00:13:01;13.20;;;4.70;;
9080;SDS011;13509;50.760;6.080;2024-01-10T00:15:29;13.20;;;5.70;;
9080;SDS011;13509;50.760;6.080;2024-01-10T00:17:57;11.93;;;6.00;;
9080;SDS011;13509;50.760;6.080;2024-01-10T00:20:25;15.97;;;5.43;;
9080;SDS011;13509;50.760;6.080;2024-01-10T00:22:53;14.57;;;6.10;;
9080;SDS011;13509;50.760;6.080;2024-01-10T00:25:23;13.77;;;5.70;;
9080;SDS011;13509;50.760;6.080;2024-01-10T00:27:51;10.37;;;5.50;;
9080;SDS011;13509;50.760;6.080;2024-01-10T00:30:19;16.43;;;6.03;;
9080;SDS011;13509;50.760;6.080;2024-01-10T00:32:48;15.43;;;6.00;;
9080;SDS011;13509;50.760;6.080;2024-01-10T00:35:16;10.87;;;4.80;;
9080;SDS011;13509;50.760;6.080;2024-01-10T00:37:44;14.10;;;5.43;;
9080;SDS011;13509;50.760;6.080;2024-01-10T00:40:13;12.27;;;5.97;;
9080;SDS011;13509;50.760;6.080;2024-01-10T00:42:42;11.53;;;5.67;;
9080;SDS011;13509;50.760;6.080;2024-01-10T00:45:11;14.17;;;6.17;;
9080;SDS011;13509;50.760;6.080;2024-01-10T00:47:39;15.27;;;5.57;;
9080;SDS011;13509;50.760;6.080;2024-01-10T00:50:08;9.37;;;4.97;;
9080;SDS011;13509;50.760;6.080;2024-01-10T00:52:38;12.43;;;6.47;;
9080;SDS011;13509;50.760;6.080;2024-01-10T00:55:07;13.53;;;5.17;;
9080;SDS011;13509;50.760;6.080;2024-01-10T00:57:35;12.17;;;5.90;;
9080;SDS011;13509;50.760;6.080;2024-01-10T01:00:06;11.73;;;6.40;;
9080;SDS011;13509;50.760;6.080;2024-01-10T01:02:35;13.47;;;6.53;;
9080;SDS011;13509;50.760;6.080;2024-01-10T01:05:05;17.03;;;7.67;;
9080;SDS011;13509;50.760;6.080;2024-01-10T01:07:34;14.77;;;7.13;;
9080;SDS011;13509;50.760;6.080;2024-01-10T01:10:03;15.13;;;7.10;;
9080;SDS011;13509;50.760;6.080;2024-01-10T01:12:31;13.83;;;6.83;;
9080;SDS011;13509;50.760;6.080;2024-01-10T01:15:00;10.30;;;5.40;;
9080;SDS011;13509;50.760;6.080;2024-01-10T01:17:29;15.40;;;5.93;;
9080;SDS011;13509;50.760;6.080;2024-01-10T01:19:58;13.70;;;7.20;;
9080;SDS011;13509;50.760;6.080;2024-01-10T01:22:27;14.67;;;6.70;;
9080;SDS011;13509;50.760;6.080;2024-01-10T01:24:55;11.37;;;6.50;;
9080;SDS011;13509;50.760;6.080;2024-01-10T01:27:23;14.37;;;6.53;;
9080;SDS011;13509;50.760;6.080;2024-01-10T01:29:51;11.53;;;6.27;;
9080;SDS011;13509;50.760;6.080;2024-01-10T01:32:20;16.57;;;7.10;;
9080;SDS011;13509;50.760;6.080;2024-01-10T01:34:49;13.80;;;6.37;;
9080;SDS011;13509;50.760;6.080;2024-01-10T01:37:18;13.13;;;6.80;;
9080;SDS011;13509;50.760;6.080;2024-01-10T01:39:46;13.40;;;6.30;;
9080;SDS011;13509;50.760;6.080;2024-01-10T01:42:16;13.52;;;5.93;;
9080;SDS011;13509;50.760;6.080;2024-01-10T01:44:44;16.87;;;6.73;;
9080;SDS011;13509;50.760;6.080;2024-01-10T01:47:12;15.97;;;6.93;;
9080;SDS011;13509;50.760;6.080;2024-01-10T01:49:42;13.67;;;6.10;;
9080;SDS011;13509;50.760;6.080;2024-01-10T01:52:12;9.43;;;5.60;;
9080;SDS011;13509;50.760;6.080;2024-01-10T01:54:40;13.50;;;6.00;;
9080;SDS011;13509;50.760;6.080;2024-01-10T01:57:09;12.47;;;5.97;;
9080;SDS011;13509;50.760;6.080;2024-01-10T01:59:37;12.37;;;6.10;;
9080;SDS011;13509;50.760;6.080;2024-01-10T02:02:05;13.67;;;6.47;;
9080;SDS011;13509;50.760;6.080;2024-01-10T02:04:35;14.63;;;5.73;;
9080;SDS011;13509;50.760;6.080;2024-01-10T02:07:04;11.27;;;5.57;;
9080;SDS011;13509;50.760;6.080;2024-01-10T02:09:34;13.00;;;5.40;;
9080;SDS011;13509;50.760;6.080;2024-01-10T02:12:02;10.77;;;5.37;;
9080;SDS011;13509;50.760;6.080;2024-01-10T02:14:31;11.17;;;5.23;;
9080;SDS011;13509;50.760;6.080;2024-01-10T02:16:59;12.97;;;5.60;;
9080;SDS011;13509;50.760;6.080;2024-01-10T02:19:28;13.00;;;5.20;;
9080;SDS011;13509;50.760;6.080;2024-01-10T02:21:58;15.07;;;6.38;;
9080;SDS011;13509;50.760;6.080;2024-01-10T02:24:26;14.48;;;5.95;;
9080;SDS011;13509;50.760;6.080;2024-01-10T02:26:56;13.30;;;6.68;;
9080;SDS011;13509;50.760;6.080;2024-01-10T02:29:24;14.03;;;6.47;;
9080;SDS011;13509;50.760;6.080;2024-01-10T02:31:53;15.30;;;6.70;;
9080;SDS011;13509;50.760;6.080;2024-01-10T02:34:22;12.50;;;5.68;;
9080;SDS011;13509;50.760;6.080;2024-01-10T02:36:50;9.90;;;6.07;;
9080;SDS011;13509;50.760;6.080;2024-01-10T02:39:18;11.05;;;5.18;;
9080;SDS011;13509;50.760;6.080;2024-01-10T02:41:46;14.93;;;6.18;;
9080;SDS011;13509;50.760;6.080;2024-01-10T02:44:16;13.52;;;6.68;;
9080;SDS011;13509;50.760;6.080;2024-01-10T02:46:46;15.38;;;7.45;;
9080;SDS011;13509;50.760;6.080;2024-01-10T02:49:14;16.60;;;7.55;;
9080;SDS011;13509;50.760;6.080;2024-01-10T02:51:44;13.53;;;7.17;;
9080;SDS011;13509;50.760;6.080;2024-01-10T02:54:13;16.77;;;7.43;;
9080;SDS011;13509;50.760;6.080;2024-01-10T02:56:41;18.90;;;7.60;;
9080;SDS011;13509;50.760;6.080;2024-01-10T02:59:09;14.80;;;7.50;;
9080;SDS011;13509;50.760;6.080;2024-01-10T03:01:39;15.52;;;7.50;;
9080;SDS011;13509;50.760;6.080;2024-01-10T03:04:10;13.32;;;7.60;;
9080;SDS011;13509;50.760;6.080;2024-01-10T03:06:38;11.82;;;5.40;;
9080;SDS011;13509;50.760;6.080;2024-01-10T03:09:06;12.68;;;5.32;;
9080;SDS011;13509;50.760;6.080;2024-01-10T03:11:35;12.40;;;6.00;;
9080;SDS011;13509;50.760;6.080;2024-01-10T03:14:03;16.30;;;6.75;;
9080;SDS011;13509;50.760;6.080;2024-01-10T03:16:32;15.35;;;7.50;;
9080;SDS011;13509;50.760;6.080;2024-01-10T03:19:02;16.08;;;7.30;;
9080;SDS011;13509;50.760;6.080;2024-01-10T03:21:30;13.00;;;6.72;;
9080;SDS011;13509;50.760;6.080;2024-01-10T03:23:59;14.27;;;7.38;;
9080;SDS011;13509;50.760;6.080;2024-01-10T03:26:28;15.35;;;7.20;;
9080;SDS011;13509;50.760;6.080;2024-01-10T03:28:57;15.32;;;7.13;;
9080;SDS011;13509;50.760;6.080;2024-01-10T03:31:27;13.45;;;6.95;;
9080;SDS011;13509;50.760;6.080;2024-01-10T03:33:56;16.50;;;7.70;;
9080;SDS011;13509;50.760;6.080;2024-01-10T03:36:27;13.52;;;6.53;;
9080;SDS011;13509;50.760;6.080;2024-01-10T03:38:55;15.25;;;7.72;;
9080;SDS011;13509;50.760;6.080;2024-01-10T03:41:23;14.73;;;7.25;;
9080;SDS011;13509;50.760;6.080;2024-01-10T03:43:52;16.23;;;7.53;;
9080;SDS011;13509;50.760;6.080;2024-01-10T03:46:21;13.95;;;7.55;;
9080;SDS011;13509;50.760;6.080;2024-01-10T03:48:49;15.27;;;7.30;;
9080;SDS011;13509;50.760;6.080;2024-01-10T03:51:18;14.93;;;6.82;;
9080;SDS011;13509;50.760;6.080;2024-01-10T03:53:49;13.23;;;7.60;;
9080;SDS011;13509;50.760;6.080;2024-01-10T03:56:17;14.45;;;7.10;;
9080;SDS011;13509;50.760;6.080;2024-01-10T03:58:46;12.65;;;7.20;;
9080;SDS011;13509;50.760;6.080;2024-01-10T04:01:15;12.35;;;6.80;;
9080;SDS011;13509;50.760;6.080;2024-01-10T04:03:44;13.95;;;7.70;;
9080;SDS011;13509;50.760;6.080;2024-01-10T04:06:12;18.35;;;7.80;;
9080;SDS011;13509;50.760;6.080;2024-01-10T04:08:41;14.13;;;7.70;;
9080;SDS011;13509;50.760;6.080;2024-01-10T04:11:11;17.03;;;8.13;;
9080;SDS011;13509;50.760;6.080;2024-01-10T04:13:39;14.98;;;6.95;;
9080;SDS011;13509;50.760;6.080;2024-01-10T04:16:08;12.90;;;7.20;;
9080;SDS011;13509;50.760;6.080;2024-01-10T04:18:36;15.23;;;7.05;;
9080;SDS011;13509;50.760;6.080;2024-01-10T04:21:04;14.50;;;6.82;;
9080;SDS011;13509;50.760;6.080;2024-01-10T04:23:33;16.10;;;7.40;;
9080;SDS011;13509;50.760;6.080;2024-01-10T04:26:02;16.23;;;6.93;;
9080;SDS011;13509;50.760;6.080;2024-01-10T04:28:31;13.75;;;5.45;;
9080;SDS011;13509;50.760;6.080;2024-01-10T04:31:00;11.07;;;5.50;;
9080;SDS011;13509;50.760;6.080;2024-01-10T04:33:28;13.13;;;5.83;;
9080;SDS011;13509;50.760;6.080;2024-01-10T04:35:57;12.70;;;5.68;;
9080;SDS011;13509;50.760;6.080;2024-01-10T04:38:25;10.75;;;5.25;;
9080;SDS011;13509;50.760;6.080;2024-01-10T04:40:54;13.52;;;6.22;;
9080;SDS011;13509;50.760;6.080;2024-01-10T04:43:22;15.33;;;5.70;;
9080;SDS011;13509;50.760;6.080;2024-01-10T04:45:52;17.97;;;6.77;;
9080;SDS011;13509;50.760;6.080;2024-01-10T04:48:20;14.18;;;8.25;;
9080;SDS011;13509;50.760;6.080;2024-01-10T04:50:48;14.13;;;8.15;;
9080;SDS011;13509;50.760;6.080;2024-01-10T04:53:17;12.48;;;6.13;;
9080;SDS011;13509;50.760;6.080;2024-01-10T04:55:45;11.18;;;5.57;;
9080;SDS011;13509;50.760;6.080;2024-01-10T04:58:17;14.30;;;6.93;;
9080;SDS011;13509;50.760;6.080;2024-01-10T05:00:45;17.52;;;8.38;;
9080;SDS011;13509;50.760;6.080;2024-01-10T05:03:15;13.90;;;7.18;;
9080;SDS011;13509;50.760;6.080;2024-01-10T05:05:43;16.70;;;7.70;;
9080;SDS011;13509;50.760;6.080;2024-01-10T05:08:12;14.67;;;7.40;;
9080;SDS011;13509;50.760;6.080;2024-01-10T05:10:40;12.50;;;7.03;;
9080;SDS011;13509;50.760;6.080;2024-01-10T05:13:09;13.23;;;7.25;;
9080;SDS011;13509;50.760;6.080;2024-01-10T05:15:37;16.75;;;7.57;;
9080;SDS011;13509;50.760;6.080;2024-01-10T05:18:06;16.40;;;8.13;;
9080;SDS011;13509;50.760;6.080;2024-01-10T05:20:35;18.42;;;6.97;;
9080;SDS011;13509;50.760;6.080;2024-01-10T05:23:04;9.73;;;5.15;;
9080;SDS011;13509;50.760;6.080;2024-01-10T05:25:32;10.83;;;5.10;;
9080;SDS011;13509;50.760;6.080;2024-01-10T05:28:01;13.98;;;5.43;;
9080;SDS011;13509;50.760;6.080;2024-01-10T05:30:29;11.50;;;6.88;;
9080;SDS011;13509;50.760;6.080;2024-01-10T05:32:58;12.10;;;6.07;;
9080;SDS011;13509;50.760;6.080;2024-01-10T05:35:26;12.13;;;6.68;;
9080;SDS011;13509;50.760;6.080;2024-01-10T05:37:56;14.95;;;6.75;;
9080;SDS011;13509;50.760;6.080;2024-01-10T05:40:25;17.40;;;7.20;;
9080;SDS011;13509;50.760;6.080;2024-01-10T05:42:53;16.90;;;7.87;;
9080;SDS011;13509;50.760;6.080;2024-01-10T05:45:22;16.67;;;7.40;;
9080;SDS011;13509;50.760;6.080;2024-01-10T05:47:53;13.37;;;5.70;;
9080;SDS011;13509;50.760;6.080;2024-01-10T05:50:21;13.73;;;6.50;;
9080;SDS011;13509;50.760;6.080;2024-01-10T05:52:50;15.57;;;7.97;;
9080;SDS011;13509;50.760;6.080;2024-01-10T05:55:20;10.40;;;5.73;;
9080;SDS011;13509;50.760;6.080;2024-01-10T05:57:49;12.30;;;5.83;;
9080;SDS011;13509;50.760;6.080;2024-01-10T06:00:18;19.03;;;7.47;;
9080;SDS011;13509;50.760;6.080;2024-01-10T06:02:47;17.90;;;7.70;;
9080;SDS011;13509;50.760;6.080;2024-01-10T06:05:16;11.10;;;6.32;;
9080;SDS011;13509;50.760;6.080;2024-01-10T06:07:44;15.88;;;7.32;;
9080;SDS011;13509;50.760;6.080;2024-01-10T06:10:13;15.33;;;7.37;;
9080;SDS011;13509;50.760;6.080;2024-01-10T06:12:42;14.23;;;5.70;;
9080;SDS011;13509;50.760;6.080;2024-01-10T06:15:11;11.93;;;6.73;;
9080;SDS011;13509;50.760;6.080;2024-01-10T06:17:39;14.77;;;6.83;;
9080;SDS011;13509;50.760;6.080;2024-01-10T06:20:08;13.90;;;7.13;;
9080;SDS011;13509;50.760;6.080;2024-01-10T06:22:37;12.13;;;6.43;;
9080;SDS011;13509;50.760;6.080;2024-01-10T06:25:05;15.00;;;7.27;;
9080;SDS011;13509;50.760;6.080;2024-01-10T06:27:34;20.07;;;7.67;;
9080;SDS011;13509;50.760;6.080;2024-01-10T06:30:04;17.13;;;8.07;;
9080;SDS011;13509;50.760;6.080;2024-01-10T06:32:33;15.37;;;7.73;;
9080;SDS011;13509;50.760;6.080;2024-01-10T06:35:02;17.17;;;6.57;;
9080;SDS011;13509;50.760;6.080;2024-01-10T06:37:31;14.93;;;6.63;;
9080;SDS011;13509;50.760;6.080;2024-01-10T06:40:02;16.00;;;7.55;;
9080;SDS011;13509;50.760;6.080;2024-01-10T06:42:32;15.53;;;6.70;;
9080;SDS011;13509;50.760;6.080;2024-01-10T06:45:00;11.53;;;6.20;;
9080;SDS011;13509;50.760;6.080;2024-01-10T06:47:30;16.02;;;6.47;;
9080;SDS011;13509;50.760;6.080;2024-01-10T06:50:00;16.60;;;6.77;;
9080;SDS011;13509;50.760;6.080;2024-01-10T06:52:31;19.00;;;7.73;;
9080;SDS011;13509;50.760;6.080;2024-01-10T06:55:00;12.90;;;6.60;;
9080;SDS011;13509;50.760;6.080;2024-01-10T06:57:30;12.07;;;6.63;;
9080;SDS011;13509;50.760;6.080;2024-01-10T06:59:58;15.13;;;6.53;;
9080;SDS011;13509;50.760;6.080;2024-01-10T07:02:31;14.53;;;6.57;;
9080;SDS011;13509;50.760;6.080;2024-01-10T07:05:02;17.40;;;6.97;;
9080;SDS011;13509;50.760;6.080;2024-01-10T07:07:32;12.00;;;6.87;;
9080;SDS011;13509;50.760;6.080;2024-01-10T07:10:01;18.07;;;7.60;;
9080;SDS011;13509;50.760;6.080;2024-01-10T07:12:31;16.77;;;7.57;;
9080;SDS011;13509;50.760;6.080;2024-01-10T07:14:59;16.13;;;6.63;;
9080;SDS011;13509;50.760;6.080;2024-01-10T07:17:30;19.53;;;8.13;;
9080;SDS011;13509;50.760;6.080;2024-01-10T07:19:59;14.05;;;6.25;;
9080;SDS011;13509;50.760;6.080;2024-01-10T07:22:30;16.92;;;7.57;;
9080;SDS011;13509;50.760;6.080;2024-01-10T07:24:58;16.30;;;6.80;;
9080;SDS011;13509;50.760;6.080;2024-01-10T07:27:27;20.83;;;7.00;;
9080;SDS011;13509;50.760;6.080;2024-01-10T07:29:55;17.03;;;6.60;;
9080;SDS011;13509;50.760;6.080;2024-01-10T07:32:24;12.30;;;6.83;;
9080;SDS011;13509;50.760;6.080;2024-01-10T07:34:54;14.97;;;7.40;;
9080;SDS011;13509;50.760;6.080;2024-01-10T07:37:24;21.70;;;10.70;;
9080;SDS011;13509;50.760;6.080;2024-01-10T07:39:52;14.00;;;7.80;;
9080;SDS011;13509;50.760;6.080;2024-01-10T07:42:22;14.40;;;8.17;;
9080;SDS011;13509;50.760;6.080;2024-01-10T07:44:50;15.60;;;6.60;;
9080;SDS011;13509;50.760;6.080;2024-01-10T07:47:20;17.35;;;6.47;;
9080;SDS011;13509;50.760;6.080;2024-01-10T07:49:48;14.50;;;6.95;;
9080;SDS011;13509;50.760;6.080;2024-01-10T07:52:18;19.20;;;7.77;;
9080;SDS011;13509;50.760;6.080;2024-01-10T07:54:50;12.57;;;6.73;;
9080;SDS011;13509;50.760;6.080;2024-01-10T07:57:19;15.95;;;7.13;;
9080;SDS011;13509;50.760;6.080;2024-01-10T07:59:47;15.63;;;7.37;;
9080;SDS011;13509;50.760;6.080;2024-01-10T08:02:15;15.97;;;6.93;;
9080;SDS011;13509;50.760;6.080;2024-01-10T08:04:44;12.30;;;6.80;;
9080;SDS011;13509;50.760;6.080;2024-01-10T08:07:12;14.97;;;7.63;;
9080;SDS011;13509;50.760;6.080;2024-01-10T08:09:42;14.70;;;6.50;;
9080;SDS011;13509;50.760;6.080;2024-01-10T08:12:11;20.77;;;7.35;;
9080;SDS011;13509;50.760;6.080;2024-01-10T08:14:40;17.67;;;7.38;;
9080;SDS011;13509;50.760;6.080;2024-01-10T08:17:08;18.63;;;7.37;;
9080;SDS011;13509;50.760;6.080;2024-01-10T08:19:37;18.45;;;7.47;;
9080;SDS011;13509;50.760;6.080;2024-01-10T08:22:05;15.38;;;7.45;;
9080;SDS011;13509;50.760;6.080;2024-01-10T08:24:34;16.17;;;7.90;;
9080;SDS011;13509;50.760;6.080;2024-01-10T08:27:04;16.20;;;7.77;;
9080;SDS011;13509;50.760;6.080;2024-01-10T08:29:32;16.77;;;6.83;;
9080;SDS011;13509;50.760;6.080;2024-01-10T08:32:01;15.23;;;7.90;;
9080;SDS011;13509;50.760;6.080;2024-01-10T08:34:31;14.82;;;7.30;;
9080;SDS011;13509;50.760;6.080;2024-01-10T08:36:59;14.53;;;7.37;;
9080;SDS011;13509;50.760;6.080;2024-01-10T08:39:28;11.37;;;5.70;;
9080;SDS011;13509;50.760;6.080;2024-01-10T08:41:57;16.77;;;6.63;;
9080;SDS011;13509;50.760;6.080;2024-01-10T08:44:26;17.03;;;7.20;;
9080;SDS011;13509;50.760;6.080;2024-01-10T08:46:55;15.40;;;7.63;;
9080;SDS011;13509;50.760;6.080;2024-01-10T08:49:24;13.67;;;7.17;;
9080;SDS011;13509;50.760;6.080;2024-01-10T08:51:52;13.97;;;7.30;;
9080;SDS011;13509;50.760;6.080;2024-01-10T08:54:21;14.43;;;7.37;;
9080;SDS011;13509;50.760;6.080;2024-01-10T08:56:50;15.10;;;7.50;;
9080;SDS011;13509;50.760;6.080;2024-01-10T08:59:19;13.10;;;7.00;;
9080;SDS011;13509;50.760;6.080;2024-01-10T09:01:48;13.73;;;7.20;;
9080;SDS011;13509;50.760;6.080;2024-01-10T09:04:18;15.10;;;8.23;;
9080;SDS011;13509;50.760;6.080;2024-01-10T09:06:47;15.87;;;7.60;;
9080;SDS011;13509;50.760;6.080;2024-01-10T09:09:15;15.40;;;8.97;;
9080;SDS011;13509;50.760;6.080;2024-01-10T09:11:47;18.07;;;8.43;;
9080;SDS011;13509;50.760;6.080;2024-01-10T09:14:15;15.40;;;8.20;;
9080;SDS011;13509;50.760;6.080;2024-01-10T09:16:44;14.17;;;8.23;;
9080;SDS011;13509;50.760;6.080;2024-01-10T09:19:14;20.97;;;9.70;;
9080;SDS011;13509;50.760;6.080;2024-01-10T09:21:42;17.07;;;9.47;;
9080;SDS011;13509;50.760;6.080;2024-01-10T09:24:11;17.20;;;9.37;;
9080;SDS011;13509;50.760;6.080;2024-01-10T09:26:54;20.03;;;10.00;;
9080;SDS011;13509;50.760;6.080;2024-01-10T09:29:23;18.40;;;9.20;;
9080;SDS011;13509;50.760;6.080;2024-01-10T09:31:52;21.80;;;9.60;;
9080;SDS011;13509;50.760;6.080;2024-01-10T09:34:22;16.03;;;8.63;;
9080;SDS011;13509;50.760;6.080;2024-01-10T09:36:50;19.20;;;9.27;;
9080;SDS011;13509;50.760;6.080;2024-01-10T09:39:19;15.40;;;9.30;;
9080;SDS011;13509;50.760;6.080;2024-01-10T09:41:48;16.90;;;8.53;;
9080;SDS011;13509;50.760;6.080;2024-01-10T09:44:18;17.27;;;9.57;;
9080;SDS011;13509;50.760;6.080;2024-01-10T09:46:50;17.47;;;9.63;;
9080;SDS011;13509;50.760;6.080;2024-01-10T09:49:19;18.20;;;8.83;;
9080;SDS011;13509;50.760;6.080;2024-01-10T09:51:53;14.53;;;7.90;;
9080;SDS011;13509;50.760;6.080;2024-01-10T09:54:21;19.97;;;9.57;;
9080;SDS011;13509;50.760;6.080;2024-01-10T09:56:52;20.50;;;10.03;;
9080;SDS011;13509;50.760;6.080;2024-01-10T09:59:22;18.23;;;9.10;;
9080;SDS011;13509;50.760;6.080;2024-01-10T10:01:51;18.47;;;9.73;;
9080;SDS011;13509;50.760;6.080;2024-01-10T10:04:20;19.57;;;8.50;;
9080;SDS011;13509;50.760;6.080;2024-01-10T10:06:59;21.73;;;9.20;;
9080;SDS011;13509;50.760;6.080;2024-01-10T10:09:29;16.97;;;7.80;;
9080;SDS011;13509;50.760;6.080;2024-01-10T10:11:57;16.73;;;8.57;;
9080;SDS011;13509;50.760;6.080;2024-01-10T10:14:28;22.73;;;9.43;;
9080;SDS011;13509;50.760;6.080;2024-01-10T10:16:56;19.00;;;9.87;;
9080;SDS011;13509;50.760;6.080;2024-01-10T10:19:25;20.20;;;9.77;;
9080;SDS011;13509;50.760;6.080;2024-01-10T10:22:08;17.70;;;8.80;;
9080;SDS011;13509;50.760;6.080;2024-01-10T10:24:37;19.73;;;8.67;;
9080;SDS011;13509;50.760;6.080;2024-01-10T10:27:07;18.50;;;9.43;;
9080;SDS011;13509;50.760;6.080;2024-01-10T10:29:36;20.00;;;8.90;;
9080;SDS011;13509;50.760;6.080;2024-01-10T10:32:05;20.60;;;8.93;;
9080;SDS011;13509;50.760;6.080;2024-01-10T10:34:35;14.53;;;8.50;;
9080;SDS011;13509;50.760;6.080;2024-01-10T10:37:04;14.87;;;8.07;;
9080;SDS011;13509;50.760;6.080;2024-01-10T10:39:36;15.53;;;8.73;;
9080;SDS011;13509;50.760;6.080;2024-01-10T10:42:05;18.00;;;8.17;;
9080;SDS011;13509;50.760;6.080;2024-01-10T10:44:35;14.97;;;8.50;;
9080;SDS011;13509;50.760;6.080;2024-01-10T10:47:06;18.63;;;8.30;;
9080;SDS011;13509;50.760;6.080;2024-01-10T10:49:41;21.77;;;8.60;;
9080;SDS011;13509;50.760;6.080;2024-01-10T10:52:12;15.83;;;8.30;;
9080;SDS011;13509;50.760;6.080;2024-01-10T10:54:42;15.67;;;8.60;;
9080;SDS011;13509;50.760;6.080;2024-01-10T10:57:14;19.47;;;8.83;;
9080;SDS011;13509;50.760;6.080;2024-01-10T10:59:44;18.80;;;8.33;;
9080;SDS011;13509;50.760;6.080;2024-01-10T11:02:13;14.43;;;7.33;;
9080;SDS011;13509;50.760;6.080;2024-01-10T11:04:46;16.93;;;7.80;;
9080;SDS011;13509;50.760;6.080;2024-01-10T11:07:15;14.50;;;7.30;;
9080;SDS011;13509;50.760;6.080;2024-01-10T11:09:45;16.20;;;8.47;;
9080;SDS011;13509;50.760;6.080;2024-01-10T11:12:17;17.13;;;8.50;;
9080;SDS011;13509;50.760;6.080;2024-01-10T11:14:54;15.43;;;8.10;;
9080;SDS011;13509;50.760;6.080;2024-01-10T11:17:35;15.40;;;7.37;;
9080;SDS011;13509;50.760;6.080;2024-01-10T11:20:10;21.03;;;8.57;;
9080;SDS011;13509;50.760;6.080;2024-01-10T11:22:43;17.67;;;8.83;;
9080;SDS011;13509;50.760;6.080;2024-01-10T11:25:17;19.50;;;9.50;;
9080;SDS011;13509;50.760;6.080;2024-01-10T11:27:46;20.87;;;9.77;;
9080;SDS011;13509;50.760;6.080;2024-01-10T11:30:35;20.90;;;8.83;;
9080;SDS011;13509;50.760;6.080;2024-01-10T11:36:07;18.93;;;9.47;;
9080;SDS011;13509;50.760;6.080;2024-01-10T11:38:38;20.80;;;9.50;;
9080;SDS011;13509;50.760;6.080;2024-01-10T11:41:11;23.67;;;9.60;;
9080;SDS011;13509;50.760;6.080;2024-01-10T11:43:39;20.20;;;9.67;;
9080;SDS011;13509;50.760;6.080;2024-01-10T11:46:08;21.67;;;10.20;;
9080;SDS011;13509;50.760;6.080;2024-01-10T11:48:38;22.43;;;10.40;;
9080;SDS011;13509;50.760;6.080;2024-01-10T11:51:07;23.90;;;10.40;;
9080;SDS011;13509;50.760;6.080;2024-01-10T11:53:39;19.77;;;10.60;;
9080;SDS011;13509;50.760;6.080;2024-01-10T11:56:10;19.93;;;9.47;;
9080;SDS011;13509;50.760;6.080;2024-01-10T11:58:52;22.07;;;11.97;;
9080;SDS011;13509;50.760;6.080;2024-01-10T12:01:20;20.60;;;10.43;;
9080;SDS011;13509;50.760;6.080;2024-01-10T12:03:51;22.07;;;10.60;;
9080;SDS011;13509;50.760;6.080;2024-01-10T12:06:39;18.50;;;8.70;;
9080;SDS011;13509;50.760;6.080;2024-01-10T12:09:08;26.00;;;11.13;;
9080;SDS011;13509;50.760;6.080;2024-01-10T12:11:39;20.33;;;9.90;;
9080;SDS011;13509;50.760;6.080;2024-01-10T12:14:08;22.57;;;10.90;;
9080;SDS011;13509;50.760;6.080;2024-01-10T12:16:37;24.63;;;11.10;;
9080;SDS011;13509;50.760;6.080;2024-01-10T12:19:06;22.50;;;11.30;;
9080;SDS011;13509;50.760;6.080;2024-01-10T12:21:34;23.70;;;11.47;;
9080;SDS011;13509;50.760;6.080;2024-01-10T12:24:03;21.13;;;10.70;;
9080;SDS011;13509;50.760;6.080;2024-01-10T12:26:32;19.10;;;10.43;;
9080;SDS011;13509;50.760;6.080;2024-01-10T12:29:03;21.57;;;10.80;;
9080;SDS011;13509;50.760;6.080;2024-01-10T12:31:33;21.80;;;11.90;;
9080;SDS011;13509;50.760;6.080;2024-01-10T12:34:01;22.80;;;11.80;;
9080;SDS011;13509;50.760;6.080;2024-01-10T12:36:33;24.90;;;10.77;;
9080;SDS011;13509;50.760;6.080;2024-01-10T12:39:02;21.90;;;11.13;;
9080;SDS011;13509;50.760;6.080;2024-01-10T12:41:30;21.57;;;10.57;;
9080;SDS011;13509;50.760;6.080;2024-01-10T12:43:59;23.90;;;10.70;;
9080;SDS011;13509;50.760;6.080;2024-01-10T12:46:31;24.13;;;11.87;;
9080;SDS011;13509;50.760;6.080;2024-01-10T12:49:00;26.37;;;11.07;;
9080;SDS011;13509;50.760;6.080;2024-01-10T12:51:29;22.17;;;10.37;;
9080;SDS011;13509;50.760;6.080;2024-01-10T12:53:59;23.53;;;11.03;;
9080;SDS011;13509;50.760;6.080;2024-01-10T12:56:28;23.53;;;12.23;;
9080;SDS011;13509;50.760;6.080;2024-01-10T12:58:56;24.40;;;10.73;;
9080;SDS011;13509;50.760;6.080;2024-01-10T13:01:25;23.33;;;11.53;;
9080;SDS011;13509;50.760;6.080;2024-01-10T13:03:54;22.87;;;11.73;;
9080;SDS011;13509;50.760;6.080;2024-01-10T13:06:22;21.30;;;10.97;;
9080;SDS011;13509;50.760;6.080;2024-01-10T13:08:51;22.10;;;10.90;;
9080;SDS011;13509;50.760;6.080;2024-01-10T13:11:21;22.20;;;10.93;;
9080;SDS011;13509;50.760;6.080;2024-01-10T13:13:49;18.10;;;9.57;;
9080;SDS011;13509;50.760;6.080;2024-01-10T13:16:18;20.20;;;11.23;;
9080;SDS011;13509;50.760;6.080;2024-01-10T13:18:46;19.60;;;10.10;;
9080;SDS011;13509;50.760;6.080;2024-01-10T13:21:16;24.57;;;11.47;;
9080;SDS011;13509;50.760;6.080;2024-01-10T13:23:44;22.53;;;11.00;;
9080;SDS011;13509;50.760;6.080;2024-01-10T13:26:13;24.50;;;11.03;;
9080;SDS011;13509;50.760;6.080;2024-01-10T13:28:41;20.40;;;10.53;;
9080;SDS011;13509;50.760;6.080;2024-01-10T13:31:10;22.70;;;11.37;;
9080;SDS011;13509;50.760;6.080;2024-01-10T13:33:39;23.13;;;10.93;;
9080;SDS011;13509;50.760;6.080;2024-01-10T13:36:13;22.83;;;11.70;;
9080;SDS011;13509;50.760;6.080;2024-01-10T13:38:42;21.93;;;11.33;;
9080;SDS011;13509;50.760;6.080;2024-01-10T13:41:11;23.17;;;11.60;;
9080;SDS011;13509;50.760;6.080;2024-01-10T13:43:39;26.13;;;11.70;;
9080;SDS011;13509;50.760;6.080;2024-01-10T13:46:07;27.43;;;11.37;;
9080;SDS011;13509;50.760;6.080;2024-01-10T13:48:36;23.20;;;11.43;;
9080;SDS011;13509;50.760;6.080;2024-01-10T13:51:05;23.83;;;11.37;;
9080;SDS011;13509;50.760;6.080;2024-01-10T13:53:33;24.47;;;12.30;;
9080;SDS011;13509;50.760;6.080;2024-01-10T13:56:04;23.13;;;11.97;;
9080;SDS011;13509;50.760;6.080;2024-01-10T13:58:33;25.97;;;12.03;;
9080;SDS011;13509;50.760;6.080;2024-01-10T14:01:01;21.70;;;11.03;;
9080;SDS011;13509;50.760;6.080;2024-01-10T14:03:29;28.30;;;12.67;;
9080;SDS011;13509;50.760;6.080;2024-01-10T14:05:59;24.00;;;11.77;;
9080;SDS011;13509;50.760;6.080;2024-01-10T14:08:28;25.70;;;10.87;;
9080;SDS011;13509;50.760;6.080;2024-01-10T14:10:56;23.37;;;12.07;;
9080;SDS011;13509;50.760;6.080;2024-01-10T14:13:25;23.53;;;11.93;;
9080;SDS011;13509;50.760;6.080;2024-01-10T14:15:53;24.67;;;11.33;;
9080;SDS011;13509;50.760;6.080;2024-01-10T14:18:21;26.53;;;12.47;;
9080;SDS011;13509;50.760;6.080;2024-01-10T14:20:49;29.40;;;11.97;;
9080;SDS011;13509;50.760;6.080;2024-01-10T14:23:17;20.57;;;11.83;;
9080;SDS011;13509;50.760;6.080;2024-01-10T14:25:46;26.23;;;11.67;;
9080;SDS011;13509;50.760;6.080;2024-01-10T14:28:14;24.87;;;11.90;;
9080;SDS011;13509;50.760;6.080;2024-01-10T14:30:45;25.17;;;11.93;;
9080;SDS011;13509;50.760;6.080;2024-01-10T14:33:13;25.90;;;11.83;;
9080;SDS011;13509;50.760;6.080;2024-01-10T14:35:41;26.67;;;12.27;;
9080;SDS011;13509;50.760;6.080;2024-01-10T14:38:11;24.23;;;11.87;;
9080;SDS011;13509;50.760;6.080;2024-01-10T14:40:39;20.83;;;10.63;;
9080;SDS011;13509;50.760;6.080;2024-01-10T14:43:08;22.83;;;10.90;;
9080;SDS011;13509;50.760;6.080;2024-01-10T14:45:36;21.43;;;10.30;;
9080;SDS011;13509;50.760;6.080;2024-01-10T14:48:06;23.10;;;10.70;;
9080;SDS011;13509;50.760;6.080;2024-01-10T14:50:34;20.53;;;10.60;;
9080;SDS011;13509;50.760;6.080;2024-01-10T14:53:02;22.83;;;11.10;;
9080;SDS011;13509;50.760;6.080;2024-01-10T14:55:30;21.60;;;10.03;;
9080;SDS011;13509;50.760;6.080;2024-01-10T14:57:58;23.57;;;11.03;;
9080;SDS011;13509;50.760;6.080;2024-01-10T15:00:26;26.83;;;11.83;;